createdAt,value
2023-01-04T00:01:00.852Z,102033.19
2023-01-04T00:02:02.942Z,102042.13
2023-01-04T00:03:04.883Z,102024.72
2023-01-04T00:04:07.139Z,102043.00
2023-01-04T00:05:09.173Z,102052.56
2023-01-04T00:06:13.969Z,102042.06
2023-01-04T00:07:16.097Z,102045.47
2023-01-04T00:08:17.899Z,102037.94
2023-01-04T00:09:19.872Z,102050.88
2023-01-04T00:10:21.715Z,102057.06
2023-01-04T00:11:24.308Z,102053.63
2023-01-04T00:12:26.299Z,102057.13
2023-01-04T00:13:28.415Z,102053.63
2023-01-04T00:14:30.215Z,102058.94
2023-01-04T00:15:32.195Z,102057.13
2023-01-04T00:16:34.098Z,102060.66
2023-01-04T00:17:35.897Z,102065.97
2023-01-04T00:18:38.052Z,102061.50
2023-01-04T00:19:40.362Z,102060.66
2023-01-04T00:20:42.214Z,102046.09
2023-01-04T00:21:44.059Z,102065.09
2023-01-04T00:22:45.813Z,102061.50
2023-01-04T00:23:50.116Z,102062.56
2023-01-04T00:24:51.882Z,102058.94
2023-01-04T00:25:53.708Z,102064.16
2023-01-04T00:26:55.599Z,102020.50
2023-01-04T00:27:57.928Z,102065.09
2023-01-04T00:29:01.729Z,102066.94
2023-01-04T00:30:03.784Z,102069.59
2023-01-04T00:31:08.720Z,102070.44
2023-01-04T00:32:10.601Z,102071.31
2023-01-04T00:33:12.372Z,102074.03
2023-01-04T00:34:16.015Z,102070.78
2023-01-04T00:35:43.559Z,102073.19
2023-01-04T00:36:39.762Z,102079.94
2023-01-04T00:37:44.585Z,102078.34
2023-01-04T00:39:07.643Z,102084.50
2023-01-04T00:40:10.811Z,102078.16
2023-01-04T00:41:34.330Z,102080.13
2023-01-04T00:42:35.387Z,102083.47
2023-01-04T00:43:37.174Z,102094.28
2023-01-04T00:44:39.101Z,102083.13
2023-01-04T00:45:43.746Z,102094.53
2023-01-04T00:46:45.716Z,102091.19
2023-01-04T00:47:47.553Z,102097.19
2023-01-04T00:48:49.481Z,102093.78
2023-01-04T00:49:52.023Z,102085.28
2023-01-04T00:50:53.880Z,102096.44
2023-01-04T00:51:55.864Z,102091.19
2023-01-04T00:52:57.621Z,102085.88
2023-01-04T00:54:04.058Z,102080.91
2023-01-04T00:55:06.348Z,102078.19
2023-01-04T00:56:08.122Z,102087.78
2023-01-04T00:57:09.897Z,102094.03
2023-01-04T00:58:12.357Z,102083.00
2023-01-04T00:59:16.971Z,102084.34
2023-01-04T01:00:18.937Z,102084.34
2023-01-04T01:01:20.866Z,102089.66
2023-01-04T01:02:22.962Z,102082.63
2023-01-04T01:03:25.352Z,102082.75
2023-01-04T01:04:27.352Z,102088.81
2023-01-04T01:05:29.254Z,102078.63
2023-01-04T01:06:33.646Z,102096.03
2023-01-04T01:07:35.482Z,102089.66
2023-01-04T01:08:37.491Z,102087.13
2023-01-04T01:09:39.258Z,102092.44
2023-01-04T01:10:41.085Z,102091.56
2023-01-04T01:11:43.054Z,102085.41
2023-01-04T01:12:45.001Z,102063.09
2023-01-04T01:13:47.731Z,102080.44
2023-01-04T01:14:49.513Z,102081.88
2023-01-04T01:15:51.451Z,102080.16
2023-01-04T01:16:57.763Z,102081.97
2023-01-04T01:18:00.217Z,102075.59
2023-01-04T01:19:02.076Z,102076.56
2023-01-04T01:20:05.801Z,102062.66
2023-01-04T01:21:10.841Z,102077.50
2023-01-04T01:22:12.636Z,102078.38
2023-01-04T01:23:15.676Z,102084.63
2023-01-04T01:24:19.762Z,102078.44
2023-01-04T01:25:21.621Z,102084.53
2023-01-04T01:26:25.500Z,102083.75
2023-01-04T01:27:28.538Z,102085.59
2023-01-04T01:28:31.809Z,102100.59
2023-01-04T01:29:33.753Z,102096.09
2023-01-04T01:30:40.625Z,102094.50
2023-01-04T01:31:42.658Z,102090.78
2023-01-04T01:32:44.527Z,102089.06
2023-01-04T01:33:48.312Z,102093.56
2023-01-04T01:34:50.143Z,102090.19
2023-01-04T01:35:51.935Z,102095.34
2023-01-04T01:36:53.824Z,102095.44
2023-01-04T01:37:55.751Z,102103.44
2023-01-04T01:38:57.552Z,102105.22
2023-01-04T01:39:59.320Z,102084.38
2023-01-04T01:41:01.139Z,102097.41
2023-01-04T01:42:02.910Z,102104.38
2023-01-04T01:43:06.523Z,102100.84
2023-01-04T01:44:32.880Z,102105.22
2023-01-04T01:45:34.776Z,102104.97
2023-01-04T01:46:43.945Z,102105.97
2023-01-04T01:47:49.730Z,102107.69
2023-01-04T01:48:56.347Z,102101.59
2023-01-04T01:49:58.224Z,102098.88
2023-01-04T01:51:03.177Z,102101.72
2023-01-04T01:52:14.712Z,102109.56
2023-01-04T01:53:16.983Z,102097.34
2023-01-04T01:54:26.832Z,102095.78
2023-01-04T01:55:31.144Z,102099.31
2023-01-04T01:56:36.239Z,102106.91
2023-01-04T01:57:39.379Z,102102.56
2023-01-04T01:58:46.052Z,102100.84
2023-01-04T01:59:51.344Z,102105.13
2023-01-04T02:00:53.095Z,102093.63
2023-01-04T02:01:55.018Z,102078.22
2023-01-04T02:03:16.289Z,102092.03
2023-01-04T02:04:18.272Z,102089.94
2023-01-04T02:05:21.547Z,102082.22
2023-01-04T02:06:31.336Z,102090.13
2023-01-04T02:07:33.846Z,102090.97
2023-01-04T02:08:38.364Z,102084.88
2023-01-04T02:09:40.910Z,102090.13
2023-01-04T02:10:42.719Z,102088.41
2023-01-04T02:11:44.505Z,102083.09
2023-01-04T02:12:47.582Z,102085.84
2023-01-04T02:14:08.784Z,102082.47
2023-01-04T02:15:11.216Z,102078.44
2023-01-04T02:16:40.528Z,102085.66
2023-01-04T02:17:54.317Z,102080.91
2023-01-04T02:19:11.890Z,102073.72
2023-01-04T02:20:19.567Z,102072.00
2023-01-04T02:21:31.185Z,102079.22
2023-01-04T02:22:35.971Z,102080.16
2023-01-04T02:23:49.703Z,102080.16
2023-01-04T02:25:03.303Z,102077.59
2023-01-04T02:26:43.123Z,102072.75
2023-01-04T02:27:55.279Z,102075.34
2023-01-04T02:29:24.364Z,102073.72
2023-01-04T02:30:45.032Z,102073.88
2023-01-04T02:32:08.013Z,102080.56
2023-01-04T02:33:37.428Z,102088.66
2023-01-04T02:34:45.696Z,102084.16
2023-01-04T02:35:59.960Z,102081.69
2023-01-04T02:37:20.361Z,102087.00
2023-01-04T02:38:57.104Z,102090.25
2023-01-04T02:40:20.563Z,102087.59
2023-01-04T02:41:34.136Z,102091.31
2023-01-04T02:43:31.011Z,102090.25
2023-01-04T02:44:54.389Z,102080.56
2023-01-04T02:46:02.468Z,102077.13
2023-01-04T02:47:42.837Z,102083.69
2023-01-04T02:49:03.063Z,102081.69
2023-01-04T02:50:32.086Z,102086.25
2023-01-04T02:51:36.606Z,102072.34
2023-01-04T02:52:38.392Z,102079.38
2023-01-04T02:53:41.911Z,102066.72
2023-01-04T02:54:46.308Z,102075.31
2023-01-04T02:56:10.299Z,102072.72
2023-01-04T02:57:33.719Z,102077.09
2023-01-04T02:58:44.236Z,102075.97
2023-01-04T03:00:10.468Z,102074.06
2023-01-04T03:01:43.564Z,102071.53
2023-01-04T03:03:15.607Z,102069.53
2023-01-04T03:04:39.298Z,102072.19
2023-01-04T03:06:16.076Z,102060.69
2023-01-04T03:07:38.900Z,102063.06
2023-01-04T03:08:43.400Z,102066.03
2023-01-04T03:09:49.796Z,102071.59
2023-01-04T03:11:02.691Z,102026.28
2023-01-04T03:12:29.489Z,102071.78
2023-01-04T03:13:37.979Z,102055.25
2023-01-04T03:14:45.808Z,102063.81
2023-01-04T03:15:54.885Z,102073.66
2023-01-04T03:16:57.153Z,102026.38
2023-01-04T03:18:09.445Z,102079.06
2023-01-04T03:19:12.828Z,102075.38
2023-01-04T03:20:18.816Z,102070.31
2023-01-04T03:21:25.087Z,102068.53
2023-01-04T03:22:57.686Z,102075.44
2023-01-04T03:24:19.003Z,102053.78
2023-01-04T03:25:47.810Z,102075.97
2023-01-04T03:27:18.424Z,102065.25
2023-01-04T03:28:41.602Z,102070.47
2023-01-04T03:30:28.833Z,102067.63
2023-01-04T03:31:59.285Z,102055.47
2023-01-04T03:33:28.283Z,102060.59
2023-01-04T03:34:48.688Z,102067.72
2023-01-04T03:36:20.149Z,102071.22
2023-01-04T03:37:50.914Z,102051.63
2023-01-04T03:39:19.249Z,102066.19
2023-01-04T03:40:47.854Z,102072.34
2023-01-04T03:42:24.429Z,102063.44
2023-01-04T03:43:58.745Z,102063.44
2023-01-04T03:45:26.087Z,102068.75
2023-01-04T03:47:01.748Z,102062.66
2023-01-04T03:48:56.043Z,102059.84
2023-01-04T03:50:17.500Z,102050.31
2023-01-04T03:51:25.321Z,102056.78
2023-01-04T03:52:31.040Z,102060.38
2023-01-04T03:53:49.961Z,102066.72
2023-01-04T03:54:53.871Z,102064.06
2023-01-04T03:55:58.405Z,102060.72
2023-01-04T03:57:00.716Z,102055.50
2023-01-04T03:58:02.539Z,102060.91
2023-01-04T03:59:05.684Z,102069.91
2023-01-04T04:00:14.182Z,102061.94
2023-01-04T04:01:19.768Z,102054.81
2023-01-04T04:02:28.945Z,102065.34
2023-01-04T04:03:50.267Z,102059.19
2023-01-04T04:05:10.835Z,102053.59
2023-01-04T04:06:31.203Z,102035.63
2023-01-04T04:07:51.511Z,102049.91
2023-01-04T04:08:53.279Z,102055.25
2023-01-04T04:09:55.114Z,102052.84
2023-01-04T04:11:22.172Z,102036.75
2023-01-04T04:12:24.002Z,102053.59
2023-01-04T04:13:25.795Z,102038.38
2023-01-04T04:14:27.678Z,102052.16
2023-01-04T04:15:29.547Z,102047.81
2023-01-04T04:16:31.416Z,102055.78
2023-01-04T04:17:33.236Z,102048.81
2023-01-04T04:18:35.001Z,102047.03
2023-01-04T04:19:36.791Z,102060.31
2023-01-04T04:20:38.718Z,102062.03
2023-01-04T04:21:40.576Z,102053.47
2023-01-04T04:22:42.425Z,102058.59
2023-01-04T04:23:44.694Z,102059.44
2023-01-04T04:24:46.454Z,102057.75
2023-01-04T04:25:48.206Z,102065.81
2023-01-04T04:26:50.906Z,102058.59
2023-01-04T04:27:52.712Z,102063.06
2023-01-04T04:28:54.464Z,102064.75
2023-01-04T04:29:56.294Z,102055.94
2023-01-04T04:30:58.168Z,102056.91
2023-01-04T04:32:00.357Z,102059.38
2023-01-04T04:33:02.203Z,102059.38
2023-01-04T04:34:04.093Z,102053.47
2023-01-04T04:35:06.218Z,102065.63
2023-01-04T04:36:08.751Z,102048.94
2023-01-04T04:37:10.660Z,102062.03
2023-01-04T04:38:12.432Z,102061.28
2023-01-04T04:39:14.497Z,102067.34
2023-01-04T04:40:39.285Z,102060.31
2023-01-04T04:41:41.881Z,102063.47
2023-01-04T04:42:45.936Z,102045.50
2023-01-04T04:43:47.893Z,102052.16
2023-01-04T04:44:49.841Z,102060.16
2023-01-04T04:45:51.701Z,102057.66
2023-01-04T04:46:53.569Z,102059.38
2023-01-04T04:47:55.347Z,102050.06
2023-01-04T04:48:57.237Z,102050.31
2023-01-04T04:49:59.016Z,102071.03
2023-01-04T04:51:00.883Z,102065.72
2023-01-04T04:52:02.729Z,102067.53
2023-01-04T04:53:04.531Z,102073.69
2023-01-04T04:54:08.253Z,102066.66
2023-01-04T04:55:10.163Z,102070.19
2023-01-04T04:56:12.003Z,102069.31
2023-01-04T04:57:13.802Z,102062.38
2023-01-04T04:58:15.625Z,102053.03
2023-01-04T04:59:17.884Z,102064.09
2023-01-04T05:00:19.667Z,102062.28
2023-01-04T05:01:21.830Z,102044.22
2023-01-04T05:02:23.809Z,102062.28
2023-01-04T05:03:26.132Z,102072.06
2023-01-04T05:04:28.035Z,102061.44
2023-01-04T05:05:29.869Z,102072.91
2023-01-04T05:06:31.678Z,102064.09
2023-01-04T05:07:33.547Z,102067.59
2023-01-04T05:08:35.965Z,102051.31
2023-01-04T05:09:37.782Z,102062.38
2023-01-04T05:10:39.780Z,102064.09
2023-01-04T05:12:00.785Z,102058.78
2023-01-04T05:13:02.661Z,102059.38
2023-01-04T05:14:04.483Z,102048.75
2023-01-04T05:15:06.710Z,102053.38
2023-01-04T05:16:10.164Z,102045.41
2023-01-04T05:17:12.043Z,102037.97
2023-01-04T05:18:16.307Z,102036.06
2023-01-04T05:19:18.473Z,102062.28
2023-01-04T05:20:20.283Z,102050.06
2023-01-04T05:21:22.053Z,102047.28
2023-01-04T05:22:23.931Z,102041.28
2023-01-04T05:23:25.894Z,102045.50
2023-01-04T05:24:27.786Z,102042.06
2023-01-04T05:25:29.713Z,102045.50
2023-01-04T05:26:31.506Z,102032.66
2023-01-04T05:27:33.359Z,102050.81
2023-01-04T05:28:35.125Z,102045.50
2023-01-04T05:29:55.268Z,102045.50
2023-01-04T05:30:57.265Z,102029.56
2023-01-04T05:31:59.126Z,102027.16
2023-01-04T05:33:02.395Z,102039.25
2023-01-04T05:34:04.320Z,102024.75
2023-01-04T05:35:06.508Z,102040.19
2023-01-04T05:36:08.331Z,102040.09
2023-01-04T05:37:10.161Z,102040.19
2023-01-04T05:38:12.048Z,102038.47
2023-01-04T05:39:13.854Z,102042.06
2023-01-04T05:40:15.832Z,102036.75
2023-01-04T05:41:36.012Z,102035.88
2023-01-04T05:42:37.859Z,102040.78
2023-01-04T05:43:39.700Z,102028.00
2023-01-04T05:44:41.555Z,102027.16
2023-01-04T05:45:44.903Z,102038.28
2023-01-04T05:46:46.788Z,102031.44
2023-01-04T05:47:52.690Z,102038.63
2023-01-04T05:48:54.543Z,102031.53
2023-01-04T05:49:56.416Z,102038.28
2023-01-04T05:50:58.197Z,102041.03
2023-01-04T05:52:00.041Z,102042.75
2023-01-04T05:53:01.908Z,102041.97
2023-01-04T05:54:03.757Z,102024.56
2023-01-04T05:55:06.044Z,102025.44
2023-01-04T05:56:08.074Z,102033.81
2023-01-04T05:57:10.388Z,102025.00
2023-01-04T05:58:12.384Z,102032.03
2023-01-04T05:59:15.179Z,102017.38
2023-01-04T06:00:17.657Z,102029.38
2023-01-04T06:01:19.454Z,102033.81
2023-01-04T06:02:26.436Z,101985.78
2023-01-04T06:03:28.332Z,102030.16
2023-01-04T06:04:30.452Z,102027.47
2023-01-04T06:05:32.269Z,102034.50
2023-01-04T06:06:34.102Z,102030.91
2023-01-04T06:07:35.961Z,102033.56
2023-01-04T06:08:37.823Z,102028.16
2023-01-04T06:09:40.238Z,102037.81
2023-01-04T06:10:42.065Z,102027.97
2023-01-04T06:11:43.894Z,102033.22
2023-01-04T06:12:46.713Z,102019.34
2023-01-04T06:13:48.491Z,102023.53
2023-01-04T06:14:50.381Z,102032.78
2023-01-04T06:15:52.145Z,102029.94
2023-01-04T06:16:53.978Z,102027.94
2023-01-04T06:17:55.863Z,102031.34
2023-01-04T06:18:57.747Z,102026.78
2023-01-04T06:19:59.638Z,102025.09
2023-01-04T06:21:01.501Z,102032.50
2023-01-04T06:22:03.727Z,102028.75
2023-01-04T06:23:05.489Z,102026.75
2023-01-04T06:24:07.561Z,102035.41
2023-01-04T06:25:10.049Z,102012.69
2023-01-04T06:26:11.824Z,102028.88
2023-01-04T06:27:13.806Z,102025.97
2023-01-04T06:28:15.577Z,102019.13
2023-01-04T06:29:17.858Z,102033.38
2023-01-04T06:30:19.713Z,102012.28
2023-01-04T06:31:21.571Z,102032.03
2023-01-04T06:32:23.389Z,102024.81
2023-01-04T06:33:25.337Z,102029.00
2023-01-04T06:34:31.156Z,102030.56
2023-01-04T06:35:36.054Z,102022.38
2023-01-04T06:36:41.034Z,102016.31
2023-01-04T06:37:42.804Z,102025.44
2023-01-04T06:38:44.732Z,102021.81
2023-01-04T06:39:46.600Z,102024.38
2023-01-04T06:40:48.359Z,102019.03
2023-01-04T06:41:50.167Z,102022.94
2023-01-04T06:42:51.951Z,102015.91
2023-01-04T06:43:53.825Z,102029.72
2023-01-04T06:44:55.665Z,102025.97
2023-01-04T06:45:57.702Z,102016.09
2023-01-04T06:46:59.589Z,102031.88
2023-01-04T06:48:07.320Z,102029.97
2023-01-04T06:49:11.000Z,102029.69
2023-01-04T06:50:12.978Z,102028.66
2023-01-04T06:51:14.849Z,102028.53
2023-01-04T06:52:16.637Z,102022.38
2023-01-04T06:53:18.473Z,102009.41
2023-01-04T06:54:20.274Z,102024.66
2023-01-04T06:55:22.289Z,102024.66
2023-01-04T06:56:24.134Z,102021.84
2023-01-04T06:57:26.010Z,102023.50
2023-01-04T06:58:27.854Z,102021.59
2023-01-04T06:59:29.694Z,102022.34
2023-01-04T07:00:31.681Z,102011.88
2023-01-04T07:01:33.586Z,101969.88
2023-01-04T07:02:35.811Z,102009.22
2023-01-04T07:03:37.743Z,102015.84
2023-01-04T07:04:39.611Z,102009.78
2023-01-04T07:05:41.469Z,102016.53
2023-01-04T07:06:43.240Z,102018.25
2023-01-04T07:07:45.033Z,102016.31
2023-01-04T07:08:46.910Z,102018.03
2023-01-04T07:09:48.719Z,102016.22
2023-01-04T07:10:50.555Z,102023.25
2023-01-04T07:11:52.391Z,102022.28
2023-01-04T07:12:54.240Z,102026.66
2023-01-04T07:13:56.179Z,102025.72
2023-01-04T07:14:58.003Z,102024.75
2023-01-04T07:15:59.842Z,102029.13
2023-01-04T07:17:01.821Z,102028.19
2023-01-04T07:18:03.669Z,102028.19
2023-01-04T07:19:08.881Z,102024.59
2023-01-04T07:20:11.152Z,102026.31
2023-01-04T07:21:12.949Z,102022.69
2023-01-04T07:22:14.856Z,102027.09
2023-01-04T07:23:16.697Z,102025.25
2023-01-04T07:24:18.547Z,102015.47
2023-01-04T07:25:20.907Z,101995.66
2023-01-04T07:26:22.674Z,102011.28
2023-01-04T07:27:24.487Z,102016.31
2023-01-04T07:28:44.757Z,102017.19
2023-01-04T07:29:46.906Z,102013.38
2023-01-04T07:30:48.821Z,102010.16
2023-01-04T07:31:51.831Z,101999.50
2023-01-04T07:32:54.890Z,102007.28
2023-01-04T07:33:56.678Z,102009.94
2023-01-04T07:34:58.515Z,102008.03
2023-01-04T07:36:07.303Z,102007.56
2023-01-04T07:37:13.313Z,102004.63
2023-01-04T07:38:15.085Z,102008.88
2023-01-04T07:39:18.487Z,102010.69
2023-01-04T07:40:20.536Z,102017.75
2023-01-04T07:41:22.371Z,102005.38
2023-01-04T07:42:24.201Z,102002.69
2023-01-04T07:43:28.156Z,101997.66
2023-01-04T07:44:30.516Z,101992.53
2023-01-04T07:45:33.424Z,102008.88
2023-01-04T07:46:35.986Z,102010.69
2023-01-04T07:47:37.778Z,102018.56
2023-01-04T07:48:39.560Z,102008.03
2023-01-04T07:49:41.366Z,102006.31
2023-01-04T07:50:44.992Z,102009.94
2023-01-04T07:51:48.151Z,102003.66
2023-01-04T07:52:50.015Z,102006.31
2023-01-04T07:53:51.869Z,102001.84
2023-01-04T07:54:54.195Z,101997.56
2023-01-04T07:55:58.027Z,101997.56
2023-01-04T07:56:59.842Z,102004.50
2023-01-04T07:58:01.616Z,101987.97
2023-01-04T07:59:06.868Z,101994.16
2023-01-04T08:00:09.323Z,102002.69
2023-01-04T08:01:16.311Z,101989.47
2023-01-04T08:02:18.464Z,101991.19
2023-01-04T08:03:20.355Z,101990.34
2023-01-04T08:04:25.234Z,101974.84
2023-01-04T08:05:32.301Z,101989.47
2023-01-04T08:06:35.623Z,101987.66
2023-01-04T08:07:37.440Z,101992.88
2023-01-04T08:08:39.752Z,101987.28
2023-01-04T08:09:41.511Z,101998.41
2023-01-04T08:10:43.287Z,101994.78
2023-01-04T08:11:45.547Z,101998.41
2023-01-04T08:12:47.335Z,101993.09
2023-01-04T08:13:49.161Z,101991.28
2023-01-04T08:14:51.003Z,101992.25
2023-01-04T08:15:54.139Z,101993.09
2023-01-04T08:16:55.943Z,101994.78
2023-01-04T08:17:57.751Z,101999.28
2023-01-04T08:19:02.021Z,101998.41
2023-01-04T08:20:04.341Z,101990.72
2023-01-04T08:21:09.709Z,101997.47
2023-01-04T08:22:11.545Z,101993.00
2023-01-04T08:23:13.354Z,101993.00
2023-01-04T08:24:17.858Z,101986.03
2023-01-04T08:25:19.769Z,101991.19
2023-01-04T08:26:22.406Z,101993.97
2023-01-04T08:27:24.268Z,101995.66
2023-01-04T08:28:26.092Z,101995.66
2023-01-04T08:29:34.353Z,101998.31
2023-01-04T08:30:36.791Z,101991.19
2023-01-04T08:31:39.593Z,101993.75
2023-01-04T08:32:41.505Z,101994.59
2023-01-04T08:33:44.330Z,101994.59
2023-01-04T08:34:46.127Z,101989.38
2023-01-04T08:35:47.894Z,101991.09
2023-01-04T08:36:51.374Z,101991.09
2023-01-04T08:37:53.168Z,101992.78
2023-01-04T08:39:00.476Z,101988.44
2023-01-04T08:40:03.428Z,101986.50
2023-01-04T08:41:23.539Z,101983.19
2023-01-04T08:42:31.529Z,101979.06
2023-01-04T08:43:35.918Z,101993.34
2023-01-04T08:44:38.208Z,101986.31
2023-01-04T08:45:40.112Z,101990.75
2023-01-04T08:46:42.471Z,101989.06
2023-01-04T08:47:44.390Z,101991.72
2023-01-04T08:48:46.362Z,101994.38
2023-01-04T08:49:48.204Z,101989.94
2023-01-04T08:50:50.050Z,101993.53
2023-01-04T08:51:51.868Z,101985.56
2023-01-04T08:52:53.624Z,101985.56
2023-01-04T08:53:55.463Z,101984.59
2023-01-04T08:54:57.230Z,101982.88
2023-01-04T08:56:01.118Z,101979.28
2023-01-04T08:57:03.000Z,101986.31
2023-01-04T08:58:05.284Z,101962.81
2023-01-04T08:59:07.869Z,101979.28
2023-01-04T09:00:10.513Z,101979.28
2023-01-04T09:01:12.443Z,101975.72
2023-01-04T09:02:22.810Z,101976.47
2023-01-04T09:03:24.859Z,101967.84
2023-01-04T09:04:26.765Z,101969.34
2023-01-04T09:05:28.915Z,101974.56
2023-01-04T09:06:30.939Z,101973.72
2023-01-04T09:07:33.310Z,101966.69
2023-01-04T09:08:37.191Z,101970.19
2023-01-04T09:09:38.992Z,101965.72
2023-01-04T09:10:41.037Z,101966.69
2023-01-04T09:11:42.899Z,101975.44
2023-01-04T09:12:45.749Z,101961.78
2023-01-04T09:13:48.693Z,101965.72
2023-01-04T09:14:50.483Z,101968.41
2023-01-04T09:15:52.294Z,101969.25
2023-01-04T09:16:54.296Z,101963.91
2023-01-04T09:18:30.515Z,101964.97
2023-01-04T09:19:21.862Z,101962.75
2023-01-04T09:20:24.280Z,101958.78
2023-01-04T09:21:26.120Z,101973.53
2023-01-04T09:22:28.564Z,101964.66
2023-01-04T09:23:31.093Z,101966.47
2023-01-04T09:24:34.056Z,101964.66
2023-01-04T09:25:40.028Z,101958.56
2023-01-04T09:26:41.852Z,101963.69
2023-01-04T09:27:44.660Z,101961.25
2023-01-04T09:28:46.654Z,101966.47
2023-01-04T09:29:48.522Z,101966.47
2023-01-04T09:30:50.351Z,101932.97
2023-01-04T09:31:52.170Z,101953.44
2023-01-04T09:32:54.291Z,101966.47
2023-01-04T09:34:15.227Z,101968.28
2023-01-04T09:35:18.597Z,101943.53
2023-01-04T09:36:20.644Z,101945.25
2023-01-04T09:37:22.505Z,101955.91
2023-01-04T09:38:24.394Z,101947.72
2023-01-04T09:39:30.408Z,101954.88
2023-01-04T09:40:47.609Z,101939.50
2023-01-04T09:41:52.092Z,101953.69
2023-01-04T09:43:20.862Z,101952.94
2023-01-04T09:46:09.642Z,101951.38
2023-01-04T09:47:17.710Z,101951.59
2023-01-04T09:48:26.973Z,101947.41
2023-01-04T09:49:37.756Z,101947.41
2023-01-04T09:50:51.859Z,101952.75
2023-01-04T09:52:03.206Z,101950.09
2023-01-04T09:53:09.825Z,101947.50
2023-01-04T09:54:20.662Z,101948.47
2023-01-04T09:55:38.138Z,101944.09
2023-01-04T09:56:51.460Z,101941.34
2023-01-04T09:57:57.905Z,101945.72
2023-01-04T09:59:02.903Z,101939.63
2023-01-04T10:00:19.934Z,101940.38
2023-01-04T10:01:39.851Z,101939.50
2023-01-04T10:02:56.226Z,101934.84
2023-01-04T10:04:17.969Z,101922.75
2023-01-04T10:05:23.999Z,101941.13
2023-01-04T10:06:26.263Z,101935.78
2023-01-04T10:07:33.496Z,101922.53
2023-01-04T10:08:35.726Z,101935.13
2023-01-04T10:09:37.561Z,101937.06
2023-01-04T10:10:57.722Z,101944.84
2023-01-04T10:12:05.656Z,101931.50
2023-01-04T10:13:32.957Z,101932.38
2023-01-04T10:14:46.801Z,101930.25
2023-01-04T10:15:59.031Z,101919.59
2023-01-04T10:17:20.466Z,101918.09
2023-01-04T10:21:53.978Z,101913.84
2023-01-04T10:23:18.589Z,101905.31
2023-01-04T10:24:43.534Z,101904.25
2023-01-04T10:25:48.359Z,101908.94
2023-01-04T10:26:52.011Z,101902.09
2023-01-04T10:28:15.119Z,101908.38
2023-01-04T10:29:28.703Z,101900.19
2023-01-04T10:30:55.360Z,101899.34
2023-01-04T10:32:18.202Z,101898.19
2023-01-04T10:33:25.654Z,101901.69
2023-01-04T10:34:32.071Z,101890.38
2023-01-04T10:35:35.990Z,101893.16
2023-01-04T10:36:37.841Z,101890.59
2023-01-04T10:37:39.991Z,101894.19
2023-01-04T10:38:43.160Z,101888.97
2023-01-04T10:39:46.172Z,101893.34
2023-01-04T10:40:48.777Z,101880.97
2023-01-04T10:42:48.549Z,101884.72
2023-01-04T10:44:11.728Z,101882.59
2023-01-04T10:45:27.386Z,101875.47
2023-01-04T10:46:35.266Z,101873.63
2023-01-04T10:47:42.802Z,101868.44
2023-01-04T10:48:56.961Z,101862.44
2023-01-04T10:50:03.375Z,101875.47
2023-01-04T10:51:10.324Z,101871.09
2023-01-04T10:52:16.650Z,101863.94
2023-01-04T10:53:31.503Z,101865.63
2023-01-04T10:54:36.013Z,101864.59
2023-01-04T10:56:24.321Z,101866.38
2023-01-04T10:57:14.236Z,101864.25
2023-01-04T10:58:35.232Z,101856.25
2023-01-04T11:00:02.998Z,101863.72
2023-01-04T11:01:12.528Z,101857.56
2023-01-04T11:02:23.679Z,101854.16
2023-01-04T11:04:11.837Z,101862.69
2023-01-04T11:05:20.938Z,101856.38
2023-01-04T11:06:49.463Z,101853.94
2023-01-04T11:08:01.491Z,101840.81
2023-01-04T11:09:12.449Z,101857.34
2023-01-04T11:10:20.736Z,101858.31
2023-01-04T11:11:27.632Z,101853.06
2023-01-04T11:12:29.631Z,101844.22
2023-01-04T11:13:31.752Z,101849.66
2023-01-04T11:14:37.534Z,101846.16
2023-01-04T11:15:42.674Z,101847.94
2023-01-04T11:16:48.464Z,101822.69
2023-01-04T11:17:52.081Z,101832.81
2023-01-04T11:18:53.919Z,101837.28
2023-01-04T11:19:55.736Z,101834.63
2023-01-04T11:20:57.862Z,101847.94
2023-01-04T11:22:06.166Z,101834.75
2023-01-04T11:23:14.413Z,101836.31
2023-01-04T11:24:33.291Z,101841.56
2023-01-04T11:25:50.348Z,101836.00
2023-01-04T11:26:56.584Z,101833.22
2023-01-04T11:28:22.359Z,101831.94
2023-01-04T11:29:49.940Z,101826.72
2023-01-04T11:31:05.605Z,101833.88
2023-01-04T11:32:26.052Z,101805.50
2023-01-04T11:33:28.428Z,101817.22
2023-01-04T11:34:52.668Z,101818.91
2023-01-04T11:35:57.031Z,101819.13
2023-01-04T11:36:58.842Z,101820.00
2023-01-04T11:38:11.794Z,101820.22
2023-01-04T11:39:22.266Z,101814.91
2023-01-04T11:40:25.293Z,101819.34
2023-01-04T11:41:27.378Z,101816.81
2023-01-04T11:42:29.522Z,101803.34
2023-01-04T11:43:36.706Z,101818.75
2023-01-04T11:44:38.754Z,101819.56
2023-01-04T11:45:40.647Z,101821.41
2023-01-04T11:46:42.454Z,101815.19
2023-01-04T11:47:49.866Z,101819.78
2023-01-04T11:48:53.137Z,101815.13
2023-01-04T11:49:56.202Z,101817.88
2023-01-04T11:50:58.060Z,101813.41
2023-01-04T11:51:59.822Z,101817.78
2023-01-04T11:53:02.258Z,101801.44
2023-01-04T11:54:14.755Z,101812.66
2023-01-04T11:55:17.942Z,101819.56
2023-01-04T11:56:21.327Z,101817.78
2023-01-04T11:57:23.139Z,101813.41
2023-01-04T11:58:28.008Z,101802.09
2023-01-04T11:59:30.123Z,101813.41
2023-01-04T12:00:31.956Z,101813.41
2023-01-04T12:01:37.345Z,101801.13
2023-01-04T12:04:01.389Z,101805.19
2023-01-04T12:05:06.460Z,101799.19
2023-01-04T12:06:17.817Z,101804.44
2023-01-04T12:07:26.733Z,101801.66
2023-01-04T12:08:32.637Z,101795.69
2023-01-04T12:09:35.018Z,101788.22
2023-01-04T12:10:36.914Z,101790.78
2023-01-04T12:11:42.389Z,101797.50
2023-01-04T12:12:44.292Z,101796.97
2023-01-04T12:13:46.261Z,101795.34
2023-01-04T12:14:49.992Z,101794.91
2023-01-04T12:16:03.761Z,101797.59
2023-01-04T12:17:18.717Z,101792.91
2023-01-04T12:18:28.654Z,101796.44
2023-01-04T12:19:31.341Z,101796.44
2023-01-04T12:20:33.208Z,101792.06
2023-01-04T12:21:35.269Z,101789.50
2023-01-04T12:22:39.461Z,101780.75
2023-01-04T12:23:41.596Z,101782.47
2023-01-04T12:24:45.794Z,101779.88
2023-01-04T12:25:53.566Z,101778.41
2023-01-04T12:26:55.854Z,101785.03
2023-01-04T12:27:57.955Z,101781.59
2023-01-04T12:29:24.696Z,101771.56
2023-01-04T12:30:46.478Z,101776.59
2023-01-04T12:32:00.931Z,101781.06
2023-01-04T12:33:34.928Z,101749.41
2023-01-04T12:34:42.564Z,101772.44
2023-01-04T12:36:06.988Z,101787.03
2023-01-04T12:37:10.755Z,101780.97
2023-01-04T12:38:12.570Z,101786.53
2023-01-04T12:39:14.359Z,101776.06
2023-01-04T12:40:47.070Z,101766.97
2023-01-04T12:42:01.094Z,101762.41
2023-01-04T12:43:15.412Z,101755.25
2023-01-04T12:44:39.161Z,101770.19
2023-01-04T12:45:42.576Z,101765.94
2023-01-04T12:47:03.087Z,101760.81
2023-01-04T12:48:46.190Z,101756.00
2023-01-04T12:49:56.938Z,101753.13
2023-01-04T12:51:32.848Z,101756.75